»·PEaware :: N727CR KMIA-KEYW

N727CR :: KMIA-KEYW

FLIGHT INFORMATION

Flight Status: Arrived
Operator: Privately registered:
United States
More flights under this callsign
Pilot: Anonymous 5323 (5323)
Aircraft: DEHAVILLAND DH-2 BEAVER
(DHC2)
More flights by this aircraft type
Origin: KMIA Miami Intl
United States
Destination: KEYW Key West Intl
United States
More flights between these airports :: More routes between these airports
Route:
File this flight plan on PilotEdge
Remarks:
Altitude:
(Current/Filed)
6,500ft
Speed:
(Current/Filed)
122kts
Departed: 25-Nov-15 04:11 PM
Arrived: 25-Nov-15 05:12 PM
Distance/Time
Traveled:
109nm/1:01
Distance/Time
To Go:
Arrived

Flight Plot

Page will automatically refresh every two minutes.


Map Options




Map Legend


Flown Route
Filed Route
Departure Airport
Arrival Airport
Navaid (VOR, NDB)
Fix

Horizontal Profiles

Position Reports

Time Latitude Longitude Heading Altitude Ground
Speed
25-Nov-15 15:57 25.805908 -80.287867 218 30ft 0kts
25-Nov-15 15:58 25.805908 -80.287867 218 30ft 0kts
25-Nov-15 15:59 25.805908 -80.287867 218 30ft 0kts
25-Nov-15 16:00 25.805908 -80.287867 218 30ft 0kts
25-Nov-15 16:01 25.804857 -80.288221 13 30ft 2kts
25-Nov-15 16:02 25.804313 -80.293768 268 30ft 29kts
25-Nov-15 16:03 25.803997 -80.301175 256 30ft 11kts
25-Nov-15 16:04 25.803799 -80.301431 180 30ft 0kts
25-Nov-15 16:05 25.803799 -80.301431 180 30ft 0kts
25-Nov-15 16:06 25.803799 -80.301431 180 30ft 0kts
25-Nov-15 16:07 25.802882 -80.300305 90 33ft 30kts
25-Nov-15 16:08 25.799025 -80.282127 156 1139ft 106kts
25-Nov-15 16:09 25.771900 -80.282242 157 2352ft 83kts
25-Nov-15 16:10 25.748810 -80.277830 161 3150ft 88kts
25-Nov-15 16:11 25.725408 -80.276092 164 3917ft 82kts
25-Nov-15 16:12 25.700945 -80.280575 185 4568ft 92kts
25-Nov-15 16:13 25.674852 -80.286961 190 5330ft 96kts
25-Nov-15 16:14 25.649939 -80.295591 195 6058ft 99kts
25-Nov-15 16:15 25.622600 -80.304420 165 6529ft 116kts
25-Nov-15 16:16 25.587479 -80.315107 191 6517ft 138kts
25-Nov-15 16:17 25.550460 -80.327816 191 6513ft 140kts
25-Nov-15 16:18 25.513304 -80.340444 191 6513ft 139kts
25-Nov-15 16:19 25.476293 -80.353129 192 6513ft 140kts
25-Nov-15 16:20 25.439391 -80.365444 191 6510ft 139kts
25-Nov-15 16:21 25.402208 -80.378078 191 6515ft 139kts
25-Nov-15 16:22 25.365197 -80.390760 191 6510ft 139kts
25-Nov-15 16:23 25.328229 -80.403472 191 6509ft 139kts
25-Nov-15 16:24 25.291290 -80.416092 192 6512ft 139kts
25-Nov-15 16:25 25.254141 -80.428831 191 6514ft 139kts
25-Nov-15 16:26 25.217010 -80.441421 192 6516ft 140kts
25-Nov-15 16:27 25.185797 -80.467675 220 6516ft 143kts
25-Nov-15 16:28 25.156313 -80.497688 219 6512ft 144kts
25-Nov-15 16:29 25.126936 -80.527708 219 6515ft 144kts
25-Nov-15 16:30 25.097607 -80.557599 219 6511ft 143kts
25-Nov-15 16:31 25.068287 -80.587547 220 6514ft 144kts
25-Nov-15 16:32 25.043810 -80.612604 219 6512ft 144kts
25-Nov-15 16:33 25.009581 -80.647612 219 6514ft 144kts
25-Nov-15 16:34 24.980223 -80.677573 220 6512ft 143kts
25-Nov-15 16:35 24.959239 -80.699022 0 6516ft 0kts
25-Nov-15 16:36 24.932631 -80.734057 235 6515ft 145kts
25-Nov-15 16:37 24.914219 -80.765001 236 6516ft 145kts
25-Nov-15 16:38 24.893150 -80.800337 235 6515ft 145kts
25-Nov-15 16:39 24.871024 -80.837549 236 6515ft 145kts
25-Nov-15 16:40 24.848862 -80.874803 235 6516ft 144kts
25-Nov-15 16:41 24.826806 -80.911948 235 6515ft 145kts
25-Nov-15 16:42 24.804670 -80.949257 236 6517ft 145kts
25-Nov-15 16:43 24.782597 -80.986405 236 6514ft 145kts
25-Nov-15 16:44 24.765308 -81.026314 248 6515ft 145kts
25-Nov-15 16:45 24.750112 -81.067689 249 6515ft 145kts
25-Nov-15 16:46 24.735084 -81.108857 248 6514ft 145kts
25-Nov-15 16:47 24.720094 -81.150065 248 6511ft 144kts
25-Nov-15 16:48 24.705131 -81.191152 248 6512ft 145kts
25-Nov-15 16:49 24.690104 -81.232408 247 6513ft 145kts
25-Nov-15 16:50 24.675230 -81.273402 248 6515ft 145kts
25-Nov-15 16:51 24.660307 -81.314604 248 6516ft 145kts
25-Nov-15 16:52 24.645387 -81.355718 249 6515ft 144kts
25-Nov-15 16:53 24.635119 -81.400778 261 5674ft 153kts
25-Nov-15 16:54 24.629896 -81.447880 267 4692ft 160kts
25-Nov-15 16:55 24.626959 -81.494423 267 4067ft 148kts
25-Nov-15 16:56 24.621387 -81.538997 255 3556ft 147kts
25-Nov-15 16:57 24.614948 -81.583589 267 3028ft 146kts
25-Nov-15 16:58 24.609175 -81.628189 260 2597ft 151kts
25-Nov-15 16:59 24.598648 -81.671515 249 1912ft 144kts
25-Nov-15 17:00 24.581029 -81.711702 242 1304ft 141kts
25-Nov-15 17:01 24.565371 -81.747859 263 1017ft 117kts
25-Nov-15 17:02 24.565027 -81.780616 211 685ft 94kts
25-Nov-15 17:03 24.555482 -81.771912 83 126ft 43kts
25-Nov-15 17:04 24.555701 -81.759549 87 148ft 54kts
25-Nov-15 17:05 24.564863 -81.767413 270 926ft 112kts
25-Nov-15 17:06 24.560672 -81.796306 185 700ft 91kts
25-Nov-15 17:07 24.555482 -81.781240 86 339ft 53kts
25-Nov-15 17:08 24.555721 -81.764484 87 8ft 44kts
25-Nov-15 17:09 24.555805 -81.757103 89 7ft 22kts
25-Nov-15 17:10 24.554348 -81.755285 87 7ft 0kts
25-Nov-15 17:11 24.555636 -81.767621 86 34ft 53kts
25-Nov-15 17:12 24.554348 -81.755285 87 7ft 0kts
25-Nov-15 17:13 24.554348 -81.755285 87 7ft 0kts

Navigation Log

Ident Type
1. KMIA Airport
2. KEYW Airport